Wallace, Nebraska
Current Conditions -  °F | °C
As of 6:53 PM on Wednesday 22 Oct 2014 (Local Time) from KLBF Reporting Station
Clear Clear  
Wind Chill: 58°   Ceiling: Unl
Heat Index: 58°   Visibility: 10mi
Dew Point: 51°   Wind: 6mph
Humidity: 78%   Direction: 90°E
Pressure: 30.02"   Gusts: NA
Location:  40.84°N, 101.16°W
Report Text: KLBF 222353Z AUTO 09005KT 10SM CLR 14/11 A3002 RMK AO2 SLP156 T01440106 10211 20144 53007
Loading
Personal Weather Stations






























Interactive Weather Map
Tropical Storm Tracking
New forecast layout! Learn more

10-Day Weather Forecast

Advertisements
Track Severe Weather on mobile